sensor_id;sensor_type;location;lat;lon;timestamp;temperature;humidity
51982;DHT22;37998;53.416;6.730;2023-07-20T00:02:09;15.80;99.90
51982;DHT22;37998;53.416;6.730;2023-07-20T00:04:35;15.80;99.90
51982;DHT22;37998;53.416;6.730;2023-07-20T00:07:01;15.80;99.90
51982;DHT22;37998;53.416;6.730;2023-07-20T00:09:27;15.80;99.90
51982;DHT22;37998;53.416;6.730;2023-07-20T00:11:53;15.80;99.90
51982;DHT22;37998;53.416;6.730;2023-07-20T00:14:22;15.80;99.90
51982;DHT22;37998;53.416;6.730;2023-07-20T00:16:51;15.80;99.90
51982;DHT22;37998;53.416;6.730;2023-07-20T00:19:30;15.80;99.90
51982;DHT22;37998;53.416;6.730;2023-07-20T00:21:57;15.80;99.90
51982;DHT22;37998;53.416;6.730;2023-07-20T00:24:23;15.70;99.90
51982;DHT22;37998;53.416;6.730;2023-07-20T00:26:49;15.70;99.90
51982;DHT22;37998;53.416;6.730;2023-07-20T00:29:15;15.70;99.90
51982;DHT22;37998;53.416;6.730;2023-07-20T00:31:41;15.70;99.90
51982;DHT22;37998;53.416;6.730;2023-07-20T00:34:12;15.70;99.90
51982;DHT22;37998;53.416;6.730;2023-07-20T00:36:39;15.70;99.90
51982;DHT22;37998;53.416;6.730;2023-07-20T00:39:06;15.70;99.90
51982;DHT22;37998;53.416;6.730;2023-07-20T00:41:32;15.70;99.90
51982;DHT22;37998;53.416;6.730;2023-07-20T00:43:58;15.70;99.90
51982;DHT22;37998;53.416;6.730;2023-07-20T00:46:24;15.70;99.90
51982;DHT22;37998;53.416;6.730;2023-07-20T00:48:51;15.70;99.90
51982;DHT22;37998;53.416;6.730;2023-07-20T00:51:19;15.60;99.90
51982;DHT22;37998;53.416;6.730;2023-07-20T00:53:45;15.60;99.90
51982;DHT22;37998;53.416;6.730;2023-07-20T00:56:11;15.50;99.90
51982;DHT22;37998;53.416;6.730;2023-07-20T00:58:37;15.50;99.90
51982;DHT22;37998;53.416;6.730;2023-07-20T01:01:04;15.40;99.90
51982;DHT22;37998;53.416;6.730;2023-07-20T01:03:29;15.40;99.90
51982;DHT22;37998;53.416;6.730;2023-07-20T01:08:40;15.30;99.90
51982;DHT22;37998;53.416;6.730;2023-07-20T01:11:16;15.30;99.90
51982;DHT22;37998;53.416;6.730;2023-07-20T01:13:43;15.20;99.90
51982;DHT22;37998;53.416;6.730;2023-07-20T01:16:13;15.20;99.90
51982;DHT22;37998;53.416;6.730;2023-07-20T01:18:39;15.10;99.90
51982;DHT22;37998;53.416;6.730;2023-07-20T01:21:09;15.10;99.90
51982;DHT22;37998;53.416;6.730;2023-07-20T01:26:27;15.10;99.90
51982;DHT22;37998;53.416;6.730;2023-07-20T01:31:34;15.00;99.90
51982;DHT22;37998;53.416;6.730;2023-07-20T01:34:02;14.90;99.90
51982;DHT22;37998;53.416;6.730;2023-07-20T01:36:33;14.90;99.90
51982;DHT22;37998;53.416;6.730;2023-07-20T01:39:00;15.00;99.90
51982;DHT22;37998;53.416;6.730;2023-07-20T01:41:27;15.00;99.90
51982;DHT22;37998;53.416;6.730;2023-07-20T01:43:53;15.00;99.90
51982;DHT22;37998;53.416;6.730;2023-07-20T01:46:22;15.00;99.90
51982;DHT22;37998;53.416;6.730;2023-07-20T01:48:49;15.00;99.90
51982;DHT22;37998;53.416;6.730;2023-07-20T01:51:16;15.00;99.90
51982;DHT22;37998;53.416;6.730;2023-07-20T01:53:43;15.00;99.90
51982;DHT22;37998;53.416;6.730;2023-07-20T01:56:12;15.10;99.90
51982;DHT22;37998;53.416;6.730;2023-07-20T01:58:38;15.00;99.90
51982;DHT22;37998;53.416;6.730;2023-07-20T02:01:04;15.00;99.90
51982;DHT22;37998;53.416;6.730;2023-07-20T02:03:30;15.00;99.90
51982;DHT22;37998;53.416;6.730;2023-07-20T02:05:56;14.90;99.90
51982;DHT22;37998;53.416;6.730;2023-07-20T02:08:22;14.90;99.90
51982;DHT22;37998;53.416;6.730;2023-07-20T02:10:49;14.90;99.90
51982;DHT22;37998;53.416;6.730;2023-07-20T02:13:16;14.90;99.90
51982;DHT22;37998;53.416;6.730;2023-07-20T02:15:42;14.90;99.90
51982;DHT22;37998;53.416;6.730;2023-07-20T02:18:09;14.90;99.90
51982;DHT22;37998;53.416;6.730;2023-07-20T02:20:35;14.90;99.90
51982;DHT22;37998;53.416;6.730;2023-07-20T02:23:02;14.90;99.90
51982;DHT22;37998;53.416;6.730;2023-07-20T02:25:27;14.90;99.90
51982;DHT22;37998;53.416;6.730;2023-07-20T02:27:56;14.90;99.90
51982;DHT22;37998;53.416;6.730;2023-07-20T02:30:22;14.90;99.90
51982;DHT22;37998;53.416;6.730;2023-07-20T02:32:48;14.90;99.90
51982;DHT22;37998;53.416;6.730;2023-07-20T02:35:15;14.90;99.90
51982;DHT22;37998;53.416;6.730;2023-07-20T02:37:42;14.90;99.90
51982;DHT22;37998;53.416;6.730;2023-07-20T02:40:08;14.90;99.90
51982;DHT22;37998;53.416;6.730;2023-07-20T02:42:35;14.80;99.90
51982;DHT22;37998;53.416;6.730;2023-07-20T02:45:02;14.80;99.90
51982;DHT22;37998;53.416;6.730;2023-07-20T02:47:30;14.80;99.90
51982;DHT22;37998;53.416;6.730;2023-07-20T02:49:57;14.80;99.90
51982;DHT22;37998;53.416;6.730;2023-07-20T02:52:23;14.80;99.90
51982;DHT22;37998;53.416;6.730;2023-07-20T02:54:50;14.80;99.90
51982;DHT22;37998;53.416;6.730;2023-07-20T02:57:16;14.80;99.90
51982;DHT22;37998;53.416;6.730;2023-07-20T02:59:42;14.80;99.90
51982;DHT22;37998;53.416;6.730;2023-07-20T03:02:08;14.80;99.90
51982;DHT22;37998;53.416;6.730;2023-07-20T03:04:37;14.70;99.90
51982;DHT22;37998;53.416;6.730;2023-07-20T03:07:06;14.80;99.90
51982;DHT22;37998;53.416;6.730;2023-07-20T03:09:32;14.70;99.90
51982;DHT22;37998;53.416;6.730;2023-07-20T03:11:58;14.80;99.90
51982;DHT22;37998;53.416;6.730;2023-07-20T03:14:28;14.70;99.90
51982;DHT22;37998;53.416;6.730;2023-07-20T03:16:55;14.80;99.90
51982;DHT22;37998;53.416;6.730;2023-07-20T03:19:21;14.70;99.90
51982;DHT22;37998;53.416;6.730;2023-07-20T03:21:48;14.70;99.90
51982;DHT22;37998;53.416;6.730;2023-07-20T03:24:34;14.70;99.90
51982;DHT22;37998;53.416;6.730;2023-07-20T03:27:00;14.70;99.90
51982;DHT22;37998;53.416;6.730;2023-07-20T03:29:26;14.60;99.90
51982;DHT22;37998;53.416;6.730;2023-07-20T03:31:52;14.60;99.90
51982;DHT22;37998;53.416;6.730;2023-07-20T03:34:19;14.60;99.90
51982;DHT22;37998;53.416;6.730;2023-07-20T03:36:45;14.60;99.90
51982;DHT22;37998;53.416;6.730;2023-07-20T03:39:12;14.60;99.90
51982;DHT22;37998;53.416;6.730;2023-07-20T03:41:41;14.70;99.90
51982;DHT22;37998;53.416;6.730;2023-07-20T03:44:07;14.70;99.90
51982;DHT22;37998;53.416;6.730;2023-07-20T03:46:33;14.60;99.90
51982;DHT22;37998;53.416;6.730;2023-07-20T03:49:00;14.70;99.90
51982;DHT22;37998;53.416;6.730;2023-07-20T03:51:26;14.70;99.90
51982;DHT22;37998;53.416;6.730;2023-07-20T03:53:55;14.70;99.90
51982;DHT22;37998;53.416;6.730;2023-07-20T03:56:24;14.70;99.90
51982;DHT22;37998;53.416;6.730;2023-07-20T03:58:50;14.70;99.90
51982;DHT22;37998;53.416;6.730;2023-07-20T04:01:16;14.70;99.90
51982;DHT22;37998;53.416;6.730;2023-07-20T04:03:43;14.70;99.90
51982;DHT22;37998;53.416;6.730;2023-07-20T04:06:09;14.70;99.90
51982;DHT22;37998;53.416;6.730;2023-07-20T04:08:36;14.70;99.90
51982;DHT22;37998;53.416;6.730;2023-07-20T04:11:03;14.70;99.90
51982;DHT22;37998;53.416;6.730;2023-07-20T04:13:29;14.70;99.90
51982;DHT22;37998;53.416;6.730;2023-07-20T04:15:59;14.70;99.90
51982;DHT22;37998;53.416;6.730;2023-07-20T04:18:27;14.70;99.90
51982;DHT22;37998;53.416;6.730;2023-07-20T04:20:53;14.70;99.90
51982;DHT22;37998;53.416;6.730;2023-07-20T04:23:19;14.70;99.90
51982;DHT22;37998;53.416;6.730;2023-07-20T04:25:45;14.80;99.90
51982;DHT22;37998;53.416;6.730;2023-07-20T04:28:14;14.80;99.90
51982;DHT22;37998;53.416;6.730;2023-07-20T04:30:44;14.80;99.90
51982;DHT22;37998;53.416;6.730;2023-07-20T04:33:20;14.90;99.90
51982;DHT22;37998;53.416;6.730;2023-07-20T04:35:52;14.90;99.90
51982;DHT22;37998;53.416;6.730;2023-07-20T04:38:21;15.20;99.90
51982;DHT22;37998;53.416;6.730;2023-07-20T04:40:53;14.90;99.90
51982;DHT22;37998;53.416;6.730;2023-07-20T04:43:19;14.90;99.90
51982;DHT22;37998;53.416;6.730;2023-07-20T04:45:45;14.90;99.90
51982;DHT22;37998;53.416;6.730;2023-07-20T04:48:13;14.90;99.90
51982;DHT22;37998;53.416;6.730;2023-07-20T04:50:45;15.00;99.90
51982;DHT22;37998;53.416;6.730;2023-07-20T04:53:12;14.90;99.90
51982;DHT22;37998;53.416;6.730;2023-07-20T04:55:39;14.90;99.90
51982;DHT22;37998;53.416;6.730;2023-07-20T04:58:05;15.00;99.90
51982;DHT22;37998;53.416;6.730;2023-07-20T05:00:33;15.00;99.90
51982;DHT22;37998;53.416;6.730;2023-07-20T05:03:00;15.00;99.90
51982;DHT22;37998;53.416;6.730;2023-07-20T05:05:26;15.10;99.90
51982;DHT22;37998;53.416;6.730;2023-07-20T05:07:52;15.10;99.90
51982;DHT22;37998;53.416;6.730;2023-07-20T05:10:18;15.20;99.90
51982;DHT22;37998;53.416;6.730;2023-07-20T05:12:44;15.20;99.90
51982;DHT22;37998;53.416;6.730;2023-07-20T05:15:10;15.20;99.90
51982;DHT22;37998;53.416;6.730;2023-07-20T05:17:38;15.20;99.90
51982;DHT22;37998;53.416;6.730;2023-07-20T05:20:06;15.20;99.90
51982;DHT22;37998;53.416;6.730;2023-07-20T05:22:32;15.20;99.90
51982;DHT22;37998;53.416;6.730;2023-07-20T05:24:58;15.20;99.90
51982;DHT22;37998;53.416;6.730;2023-07-20T05:27:24;15.20;99.90
51982;DHT22;37998;53.416;6.730;2023-07-20T05:29:50;15.30;99.90
51982;DHT22;37998;53.416;6.730;2023-07-20T05:32:16;15.30;99.90
51982;DHT22;37998;53.416;6.730;2023-07-20T05:34:42;15.50;99.90
51982;DHT22;37998;53.416;6.730;2023-07-20T05:37:08;15.50;99.90
51982;DHT22;37998;53.416;6.730;2023-07-20T05:39:34;15.60;99.90
51982;DHT22;37998;53.416;6.730;2023-07-20T05:42:02;15.70;99.90
51982;DHT22;37998;53.416;6.730;2023-07-20T05:44:31;15.80;99.90
51982;DHT22;37998;53.416;6.730;2023-07-20T05:46:57;16.50;99.90
51982;DHT22;37998;53.416;6.730;2023-07-20T05:49:24;15.90;99.90
51982;DHT22;37998;53.416;6.730;2023-07-20T05:51:50;15.90;99.90
51982;DHT22;37998;53.416;6.730;2023-07-20T05:54:16;15.90;99.90
51982;DHT22;37998;53.416;6.730;2023-07-20T05:56:45;15.80;99.90
51982;DHT22;37998;53.416;6.730;2023-07-20T05:59:11;15.90;99.90
51982;DHT22;37998;53.416;6.730;2023-07-20T06:01:37;15.90;99.90
51982;DHT22;37998;53.416;6.730;2023-07-20T06:04:03;16.00;99.90
51982;DHT22;37998;53.416;6.730;2023-07-20T06:06:29;16.00;99.90
51982;DHT22;37998;53.416;6.730;2023-07-20T06:08:55;16.10;99.90
51982;DHT22;37998;53.416;6.730;2023-07-20T06:11:21;16.10;99.90
51982;DHT22;37998;53.416;6.730;2023-07-20T06:13:47;16.20;99.90
51982;DHT22;37998;53.416;6.730;2023-07-20T06:16:13;16.30;99.90
51982;DHT22;37998;53.416;6.730;2023-07-20T06:18:48;16.20;99.90
51982;DHT22;37998;53.416;6.730;2023-07-20T06:21:14;16.30;99.90
51982;DHT22;37998;53.416;6.730;2023-07-20T06:23:40;16.40;99.90
51982;DHT22;37998;53.416;6.730;2023-07-20T06:26:07;16.50;99.90
51982;DHT22;37998;53.416;6.730;2023-07-20T06:28:33;16.50;99.90
51982;DHT22;37998;53.416;6.730;2023-07-20T06:31:00;16.50;99.90
51982;DHT22;37998;53.416;6.730;2023-07-20T06:33:27;16.60;99.90
51982;DHT22;37998;53.416;6.730;2023-07-20T06:35:52;16.60;99.90
51982;DHT22;37998;53.416;6.730;2023-07-20T06:38:23;16.80;99.90
51982;DHT22;37998;53.416;6.730;2023-07-20T06:40:49;16.80;99.90
51982;DHT22;37998;53.416;6.730;2023-07-20T06:43:16;16.70;99.90
51982;DHT22;37998;53.416;6.730;2023-07-20T06:45:42;16.60;99.90
51982;DHT22;37998;53.416;6.730;2023-07-20T06:48:08;16.60;99.90
51982;DHT22;37998;53.416;6.730;2023-07-20T06:50:34;16.70;99.90
51982;DHT22;37998;53.416;6.730;2023-07-20T06:53:00;16.80;99.90
51982;DHT22;37998;53.416;6.730;2023-07-20T06:55:28;16.70;99.90
51982;DHT22;37998;53.416;6.730;2023-07-20T06:57:54;16.70;99.90
51982;DHT22;37998;53.416;6.730;2023-07-20T07:00:20;16.70;99.90
51982;DHT22;37998;53.416;6.730;2023-07-20T07:02:46;16.60;99.90
51982;DHT22;37998;53.416;6.730;2023-07-20T07:05:12;16.70;99.90
51982;DHT22;37998;53.416;6.730;2023-07-20T07:07:41;16.80;99.90
51982;DHT22;37998;53.416;6.730;2023-07-20T07:10:08;17.00;99.90
51982;DHT22;37998;53.416;6.730;2023-07-20T07:12:34;17.10;99.90
51982;DHT22;37998;53.416;6.730;2023-07-20T07:15:02;17.20;99.90
51982;DHT22;37998;53.416;6.730;2023-07-20T07:17:28;17.30;99.90
51982;DHT22;37998;53.416;6.730;2023-07-20T07:19:54;17.50;99.90
51982;DHT22;37998;53.416;6.730;2023-07-20T07:22:22;17.50;99.90
51982;DHT22;37998;53.416;6.730;2023-07-20T07:24:48;17.60;99.90
51982;DHT22;37998;53.416;6.730;2023-07-20T07:27:14;17.70;99.90
51982;DHT22;37998;53.416;6.730;2023-07-20T07:29:42;17.80;99.90
51982;DHT22;37998;53.416;6.730;2023-07-20T07:32:11;17.50;99.90
51982;DHT22;37998;53.416;6.730;2023-07-20T07:34:37;17.90;99.90
51982;DHT22;37998;53.416;6.730;2023-07-20T07:37:04;18.00;99.90
51982;DHT22;37998;53.416;6.730;2023-07-20T07:39:30;18.00;99.90
51982;DHT22;37998;53.416;6.730;2023-07-20T07:41:56;17.90;99.90
51982;DHT22;37998;53.416;6.730;2023-07-20T07:44:23;17.90;99.90
51982;DHT22;37998;53.416;6.730;2023-07-20T07:46:49;17.90;99.90
51982;DHT22;37998;53.416;6.730;2023-07-20T07:49:18;18.00;99.90
51982;DHT22;37998;53.416;6.730;2023-07-20T07:51:45;18.10;99.90
51982;DHT22;37998;53.416;6.730;2023-07-20T07:54:11;18.30;99.90
51982;DHT22;37998;53.416;6.730;2023-07-20T07:56:36;18.40;99.90
51982;DHT22;37998;53.416;6.730;2023-07-20T07:59:02;18.40;99.90
51982;DHT22;37998;53.416;6.730;2023-07-20T08:01:28;18.40;99.90
51982;DHT22;37998;53.416;6.730;2023-07-20T08:03:55;18.40;99.90
51982;DHT22;37998;53.416;6.730;2023-07-20T08:06:42;18.50;99.90
51982;DHT22;37998;53.416;6.730;2023-07-20T08:09:07;18.60;99.90
51982;DHT22;37998;53.416;6.730;2023-07-20T08:11:33;18.70;99.90
51982;DHT22;37998;53.416;6.730;2023-07-20T08:14:00;18.70;99.90
51982;DHT22;37998;53.416;6.730;2023-07-20T08:16:26;18.50;99.90
51982;DHT22;37998;53.416;6.730;2023-07-20T08:18:53;18.60;99.90
51982;DHT22;37998;53.416;6.730;2023-07-20T08:21:19;18.70;99.90
51982;DHT22;37998;53.416;6.730;2023-07-20T08:23:48;18.60;99.90
51982;DHT22;37998;53.416;6.730;2023-07-20T08:26:14;18.50;99.90
51982;DHT22;37998;53.416;6.730;2023-07-20T08:28:40;18.80;99.90
51982;DHT22;37998;53.416;6.730;2023-07-20T08:31:06;18.80;99.90
51982;DHT22;37998;53.416;6.730;2023-07-20T08:33:32;18.60;99.90
51982;DHT22;37998;53.416;6.730;2023-07-20T08:36:03;18.70;99.90
51982;DHT22;37998;53.416;6.730;2023-07-20T08:38:31;19.10;99.90
51982;DHT22;37998;53.416;6.730;2023-07-20T08:40:57;19.40;99.90
51982;DHT22;37998;53.416;6.730;2023-07-20T08:43:26;19.40;99.90
51982;DHT22;37998;53.416;6.730;2023-07-20T08:45:54;19.30;99.90
51982;DHT22;37998;53.416;6.730;2023-07-20T08:48:24;19.10;99.90
51982;DHT22;37998;53.416;6.730;2023-07-20T08:50:51;18.90;99.90
51982;DHT22;37998;53.416;6.730;2023-07-20T08:53:20;18.90;99.90
51982;DHT22;37998;53.416;6.730;2023-07-20T08:55:49;18.80;99.90
51982;DHT22;37998;53.416;6.730;2023-07-20T08:58:16;18.70;99.90
51982;DHT22;37998;53.416;6.730;2023-07-20T09:00:43;18.70;99.90
51982;DHT22;37998;53.416;6.730;2023-07-20T09:03:10;18.80;99.90
51982;DHT22;37998;53.416;6.730;2023-07-20T09:05:37;18.70;99.90
51982;DHT22;37998;53.416;6.730;2023-07-20T09:08:07;18.70;99.90
51982;DHT22;37998;53.416;6.730;2023-07-20T09:10:33;18.80;99.90
51982;DHT22;37998;53.416;6.730;2023-07-20T09:12:59;18.90;99.90
51982;DHT22;37998;53.416;6.730;2023-07-20T09:15:25;19.10;99.90
51982;DHT22;37998;53.416;6.730;2023-07-20T09:17:52;19.20;99.90
51982;DHT22;37998;53.416;6.730;2023-07-20T09:20:20;19.30;99.80
51982;DHT22;37998;53.416;6.730;2023-07-20T09:22:50;19.30;99.80
51982;DHT22;37998;53.416;6.730;2023-07-20T09:25:18;19.30;99.60
51982;DHT22;37998;53.416;6.730;2023-07-20T09:27:49;19.40;99.70
51982;DHT22;37998;53.416;6.730;2023-07-20T09:30:16;19.40;99.90
51982;DHT22;37998;53.416;6.730;2023-07-20T09:32:46;19.30;99.90
51982;DHT22;37998;53.416;6.730;2023-07-20T09:35:16;19.20;99.70
51982;DHT22;37998;53.416;6.730;2023-07-20T09:37:55;19.30;99.90
51982;DHT22;37998;53.416;6.730;2023-07-20T09:40:25;19.30;99.90
51982;DHT22;37998;53.416;6.730;2023-07-20T09:42:53;19.30;99.90
51982;DHT22;37998;53.416;6.730;2023-07-20T09:48:08;19.70;99.40
51982;DHT22;37998;53.416;6.730;2023-07-20T09:50:42;19.70;99.60
51982;DHT22;37998;53.416;6.730;2023-07-20T09:53:12;19.60;99.40
51982;DHT22;37998;53.416;6.730;2023-07-20T09:55:41;19.60;99.40
51982;DHT22;37998;53.416;6.730;2023-07-20T09:58:09;19.40;99.30
51982;DHT22;37998;53.416;6.730;2023-07-20T10:00:39;19.50;99.80
51982;DHT22;37998;53.416;6.730;2023-07-20T10:03:06;19.50;99.10
51982;DHT22;37998;53.416;6.730;2023-07-20T10:05:34;19.30;99.40
51982;DHT22;37998;53.416;6.730;2023-07-20T10:08:02;19.40;99.60
51982;DHT22;37998;53.416;6.730;2023-07-20T10:10:33;19.50;99.70
51982;DHT22;37998;53.416;6.730;2023-07-20T10:13:01;19.60;99.70
51982;DHT22;37998;53.416;6.730;2023-07-20T10:15:32;19.60;99.70
51982;DHT22;37998;53.416;6.730;2023-07-20T10:20:33;20.00;99.20
51982;DHT22;37998;53.416;6.730;2023-07-20T10:23:01;20.10;98.70
51982;DHT22;37998;53.416;6.730;2023-07-20T10:25:28;20.10;98.60
51982;DHT22;37998;53.416;6.730;2023-07-20T10:27:55;20.00;98.50
51982;DHT22;37998;53.416;6.730;2023-07-20T10:30:22;20.00;98.50
51982;DHT22;37998;53.416;6.730;2023-07-20T10:32:49;20.10;98.50
51982;DHT22;37998;53.416;6.730;2023-07-20T10:35:17;20.00;98.10
51982;DHT22;37998;53.416;6.730;2023-07-20T10:43:03;20.40;97.70
51982;DHT22;37998;53.416;6.730;2023-07-20T10:48:21;20.30;97.50
51982;DHT22;37998;53.416;6.730;2023-07-20T10:51:13;20.30;97.40
51982;DHT22;37998;53.416;6.730;2023-07-20T10:53:40;20.20;97.00
51982;DHT22;37998;53.416;6.730;2023-07-20T10:56:13;20.00;97.30
51982;DHT22;37998;53.416;6.730;2023-07-20T10:58:42;20.10;97.30
51982;DHT22;37998;53.416;6.730;2023-07-20T11:01:08;20.10;97.10
51982;DHT22;37998;53.416;6.730;2023-07-20T11:03:56;20.30;97.10
51982;DHT22;37998;53.416;6.730;2023-07-20T11:09:14;20.60;96.40
51982;DHT22;37998;53.416;6.730;2023-07-20T11:11:41;20.70;96.50
51982;DHT22;37998;53.416;6.730;2023-07-20T11:14:21;20.80;97.10
51982;DHT22;37998;53.416;6.730;2023-07-20T11:16:49;20.80;96.30
51982;DHT22;37998;53.416;6.730;2023-07-20T11:19:24;20.70;96.30
51982;DHT22;37998;53.416;6.730;2023-07-20T11:21:55;20.80;96.20
51982;DHT22;37998;53.416;6.730;2023-07-20T11:24:22;20.80;96.30
51982;DHT22;37998;53.416;6.730;2023-07-20T11:26:52;20.80;96.40
51982;DHT22;37998;53.416;6.730;2023-07-20T11:29:21;20.90;96.50
51982;DHT22;37998;53.416;6.730;2023-07-20T11:31:47;21.00;95.90
51982;DHT22;37998;53.416;6.730;2023-07-20T11:34:24;21.00;95.20
51982;DHT22;37998;53.416;6.730;2023-07-20T11:36:51;21.10;95.50
51982;DHT22;37998;53.416;6.730;2023-07-20T11:39:18;21.10;95.60
51982;DHT22;37998;53.416;6.730;2023-07-20T11:41:52;20.90;95.30
51982;DHT22;37998;53.416;6.730;2023-07-20T11:44:23;21.00;95.50
51982;DHT22;37998;53.416;6.730;2023-07-20T11:47:07;21.10;95.40
51982;DHT22;37998;53.416;6.730;2023-07-20T11:49:40;21.00;94.70
51982;DHT22;37998;53.416;6.730;2023-07-20T11:52:08;21.10;94.60
51982;DHT22;37998;53.416;6.730;2023-07-20T11:54:35;21.10;94.30
51982;DHT22;37998;53.416;6.730;2023-07-20T11:57:03;21.30;94.30
51982;DHT22;37998;53.416;6.730;2023-07-20T11:59:32;21.30;94.00
51982;DHT22;37998;53.416;6.730;2023-07-20T12:02:01;21.40;94.30
51982;DHT22;37998;53.416;6.730;2023-07-20T12:04:30;21.40;94.50
51982;DHT22;37998;53.416;6.730;2023-07-20T12:06:56;21.50;94.90
51982;DHT22;37998;53.416;6.730;2023-07-20T12:09:22;21.40;94.80
51982;DHT22;37998;53.416;6.730;2023-07-20T12:11:49;21.30;95.20
51982;DHT22;37998;53.416;6.730;2023-07-20T12:14:16;21.30;94.80
51982;DHT22;37998;53.416;6.730;2023-07-20T12:16:42;21.40;94.80
51982;DHT22;37998;53.416;6.730;2023-07-20T12:19:12;21.50;94.60
51982;DHT22;37998;53.416;6.730;2023-07-20T12:21:39;21.60;94.60
51982;DHT22;37998;53.416;6.730;2023-07-20T12:24:07;21.70;94.80
51982;DHT22;37998;53.416;6.730;2023-07-20T12:26:35;21.60;94.60
51982;DHT22;37998;53.416;6.730;2023-07-20T12:29:01;21.50;94.80
51982;DHT22;37998;53.416;6.730;2023-07-20T12:31:27;21.50;94.40
51982;DHT22;37998;53.416;6.730;2023-07-20T12:33:56;21.40;94.60
51982;DHT22;37998;53.416;6.730;2023-07-20T12:36:24;21.60;94.60
51982;DHT22;37998;53.416;6.730;2023-07-20T12:38:50;21.60;94.80
51982;DHT22;37998;53.416;6.730;2023-07-20T12:41:16;21.60;94.90
51982;DHT22;37998;53.416;6.730;2023-07-20T12:43:46;21.50;95.10
51982;DHT22;37998;53.416;6.730;2023-07-20T12:46:15;21.40;94.70
51982;DHT22;37998;53.416;6.730;2023-07-20T12:48:42;21.40;94.80
51982;DHT22;37998;53.416;6.730;2023-07-20T12:51:09;21.20;94.60
51982;DHT22;37998;53.416;6.730;2023-07-20T12:53:35;21.00;94.40
51982;DHT22;37998;53.416;6.730;2023-07-20T12:56:01;21.10;94.90
51982;DHT22;37998;53.416;6.730;2023-07-20T12:58:27;21.20;94.70
51982;DHT22;37998;53.416;6.730;2023-07-20T13:00:54;21.20;94.80
51982;DHT22;37998;53.416;6.730;2023-07-20T13:03:20;21.30;95.00
51982;DHT22;37998;53.416;6.730;2023-07-20T13:05:47;21.30;95.30
51982;DHT22;37998;53.416;6.730;2023-07-20T13:08:13;21.40;94.90
51982;DHT22;37998;53.416;6.730;2023-07-20T13:10:39;21.60;94.70
51982;DHT22;37998;53.416;6.730;2023-07-20T13:13:06;21.60;94.30
51982;DHT22;37998;53.416;6.730;2023-07-20T13:15:40;21.60;94.40
51982;DHT22;37998;53.416;6.730;2023-07-20T13:18:06;21.60;94.10
51982;DHT22;37998;53.416;6.730;2023-07-20T13:20:32;21.40;93.40
51982;DHT22;37998;53.416;6.730;2023-07-20T13:22:58;21.50;93.80
51982;DHT22;37998;53.416;6.730;2023-07-20T13:25:24;21.30;93.80
51982;DHT22;37998;53.416;6.730;2023-07-20T13:27:50;21.30;93.80
51982;DHT22;37998;53.416;6.730;2023-07-20T13:30:16;21.30;94.20
51982;DHT22;37998;53.416;6.730;2023-07-20T13:32:43;21.40;94.30
51982;DHT22;37998;53.416;6.730;2023-07-20T13:35:15;21.60;94.10
51982;DHT22;37998;53.416;6.730;2023-07-20T13:37:41;21.50;93.50
51982;DHT22;37998;53.416;6.730;2023-07-20T13:40:08;21.50;93.40
51982;DHT22;37998;53.416;6.730;2023-07-20T13:42:39;21.50;93.40
51982;DHT22;37998;53.416;6.730;2023-07-20T13:45:06;21.60;93.30
51982;DHT22;37998;53.416;6.730;2023-07-20T13:47:33;21.60;93.40
51982;DHT22;37998;53.416;6.730;2023-07-20T13:49:58;21.50;93.30
51982;DHT22;37998;53.416;6.730;2023-07-20T13:52:24;21.40;93.40
51982;DHT22;37998;53.416;6.730;2023-07-20T13:54:50;21.40;93.40
51982;DHT22;37998;53.416;6.730;2023-07-20T13:57:16;21.40;93.30
51982;DHT22;37998;53.416;6.730;2023-07-20T13:59:43;21.40;93.20
51982;DHT22;37998;53.416;6.730;2023-07-20T14:02:09;21.30;93.10
51982;DHT22;37998;53.416;6.730;2023-07-20T14:04:36;21.30;93.20
51982;DHT22;37998;53.416;6.730;2023-07-20T14:07:02;21.40;93.00
51982;DHT22;37998;53.416;6.730;2023-07-20T14:09:28;21.50;93.40
51982;DHT22;37998;53.416;6.730;2023-07-20T14:11:54;21.50;93.30
51982;DHT22;37998;53.416;6.730;2023-07-20T14:14:19;21.50;93.00
51982;DHT22;37998;53.416;6.730;2023-07-20T14:16:45;21.60;93.00
51982;DHT22;37998;53.416;6.730;2023-07-20T14:19:11;21.70;92.20
51982;DHT22;37998;53.416;6.730;2023-07-20T14:21:38;21.70;91.80
51982;DHT22;37998;53.416;6.730;2023-07-20T14:24:04;21.70;91.80
51982;DHT22;37998;53.416;6.730;2023-07-20T14:26:33;21.70;91.80
51982;DHT22;37998;53.416;6.730;2023-07-20T14:28:58;21.60;91.70
51982;DHT22;37998;53.416;6.730;2023-07-20T14:31:24;21.60;92.20
51982;DHT22;37998;53.416;6.730;2023-07-20T14:33:50;21.60;92.40
51982;DHT22;37998;53.416;6.730;2023-07-20T14:36:16;21.60;92.30
51982;DHT22;37998;53.416;6.730;2023-07-20T14:38:42;21.60;92.50
51982;DHT22;37998;53.416;6.730;2023-07-20T14:41:08;21.60;92.40
51982;DHT22;37998;53.416;6.730;2023-07-20T14:43:34;21.60;92.60
51982;DHT22;37998;53.416;6.730;2023-07-20T14:46:00;21.60;92.50
51982;DHT22;37998;53.416;6.730;2023-07-20T14:48:31;21.60;92.40
51982;DHT22;37998;53.416;6.730;2023-07-20T14:50:57;21.50;92.20
51982;DHT22;37998;53.416;6.730;2023-07-20T14:53:23;21.40;92.50
51982;DHT22;37998;53.416;6.730;2023-07-20T14:55:49;21.50;92.20
51982;DHT22;37998;53.416;6.730;2023-07-20T14:58:15;21.30;92.30
51982;DHT22;37998;53.416;6.730;2023-07-20T15:00:41;21.30;92.60
51982;DHT22;37998;53.416;6.730;2023-07-20T15:03:07;21.20;92.60
51982;DHT22;37998;53.416;6.730;2023-07-20T15:05:35;21.10;92.80
51982;DHT22;37998;53.416;6.730;2023-07-20T15:08:05;21.10;93.10
51982;DHT22;37998;53.416;6.730;2023-07-20T15:10:32;21.10;93.20
51982;DHT22;37998;53.416;6.730;2023-07-20T15:12:58;21.00;93.20
51982;DHT22;37998;53.416;6.730;2023-07-20T15:15:24;21.00;93.40
51982;DHT22;37998;53.416;6.730;2023-07-20T15:17:53;21.00;93.40
51982;DHT22;37998;53.416;6.730;2023-07-20T15:20:20;21.00;93.40
51982;DHT22;37998;53.416;6.730;2023-07-20T15:22:47;21.00;93.70
51982;DHT22;37998;53.416;6.730;2023-07-20T15:25:13;21.00;93.50
51982;DHT22;37998;53.416;6.730;2023-07-20T15:27:39;21.10;93.60
51982;DHT22;37998;53.416;6.730;2023-07-20T15:30:07;21.10;93.80
51982;DHT22;37998;53.416;6.730;2023-07-20T15:32:33;21.20;93.60
51982;DHT22;37998;53.416;6.730;2023-07-20T15:34:59;21.10;93.40
51982;DHT22;37998;53.416;6.730;2023-07-20T15:37:26;21.00;93.20
51982;DHT22;37998;53.416;6.730;2023-07-20T15:39:52;20.90;93.40
51982;DHT22;37998;53.416;6.730;2023-07-20T15:42:21;20.90;93.50
51982;DHT22;37998;53.416;6.730;2023-07-20T15:44:47;20.90;93.50
51982;DHT22;37998;53.416;6.730;2023-07-20T15:47:13;21.00;93.50
51982;DHT22;37998;53.416;6.730;2023-07-20T15:49:39;20.80;93.50
51982;DHT22;37998;53.416;6.730;2023-07-20T15:52:05;20.80;93.60
51982;DHT22;37998;53.416;6.730;2023-07-20T15:54:31;20.80;93.50
51982;DHT22;37998;53.416;6.730;2023-07-20T15:56:58;20.80;93.70